createdAt,value
2024-04-06T00:00:17.088Z,12.4903
2024-04-06T00:01:18.505Z,12.2599
2024-04-06T00:02:19.904Z,12.5294
2024-04-06T00:03:23.807Z,12.2903
2024-04-06T00:04:23.194Z,12.1010
2024-04-06T00:05:24.485Z,11.9011
2024-04-06T00:06:25.733Z,11.8962
2024-04-06T00:07:27.048Z,11.8680
2024-04-06T00:08:28.319Z,11.7731
2024-04-06T00:09:29.608Z,11.7330
2024-04-06T00:10:30.861Z,11.8089
2024-04-06T00:11:32.169Z,12.1529
2024-04-06T00:12:33.635Z,12.1174
2024-04-06T00:13:35.038Z,12.1812
2024-04-06T00:14:36.307Z,12.1719
2024-04-06T00:15:37.587Z,12.0202
2024-04-06T00:16:38.882Z,12.1827
2024-04-06T00:17:40.172Z,12.1185
2024-04-06T00:18:41.611Z,12.0018
2024-04-06T00:19:43.104Z,11.8532
2024-04-06T00:20:44.488Z,11.6155
2024-04-06T00:21:45.940Z,11.4874
2024-04-06T00:22:47.385Z,11.4267
2024-04-06T00:23:48.812Z,11.4350
2024-04-06T00:24:50.255Z,11.8298
2024-04-06T00:25:51.691Z,11.6730
2024-04-06T00:26:53.189Z,11.6348
2024-04-06T00:27:54.556Z,11.7120
2024-04-06T00:28:55.828Z,11.6736
2024-04-06T00:29:57.134Z,11.6160
2024-04-06T00:30:58.392Z,11.4594
2024-04-06T00:31:59.692Z,11.3471
2024-04-06T00:33:01.149Z,11.6102
2024-04-06T00:34:02.591Z,11.9338
2024-04-06T00:35:04.013Z,12.3040
2024-04-06T00:36:05.445Z,12.5393
2024-04-06T00:37:06.888Z,13.2199
2024-04-06T00:38:08.328Z,13.5240
2024-04-06T00:39:09.774Z,13.2523
2024-04-06T00:40:11.240Z,13.1609
2024-04-06T00:41:12.614Z,13.3520
2024-04-06T00:42:14.067Z,13.7232
2024-04-06T00:43:15.506Z,13.6034
2024-04-06T00:44:16.949Z,13.3184
2024-04-06T00:45:18.381Z,13.5118
2024-04-06T00:46:19.827Z,13.5576
2024-04-06T00:47:21.147Z,13.5517
2024-04-06T00:48:22.450Z,13.4213
2024-04-06T00:49:23.725Z,13.1233
2024-04-06T00:50:25.064Z,13.0793
2024-04-06T00:51:26.400Z,13.3946
2024-04-06T00:52:27.819Z,13.3384
2024-04-06T00:53:29.317Z,13.3096
2024-04-06T00:54:30.698Z,13.3484
2024-04-06T00:55:32.147Z,13.2919
2024-04-06T00:56:33.584Z,13.4139
2024-04-06T00:57:35.025Z,13.6249
2024-04-06T00:58:36.365Z,13.4205
2024-04-06T00:59:37.705Z,13.2793
2024-04-06T01:00:39.032Z,13.2705
2024-04-06T01:01:44.326Z,13.6973
2024-04-06T01:02:40.332Z,13.7506
2024-04-06T01:03:41.758Z,13.7570
2024-04-06T01:04:43.198Z,13.5028
2024-04-06T01:05:44.517Z,13.3948
2024-04-06T01:06:45.845Z,13.7796
2024-04-06T01:07:47.183Z,13.8487
2024-04-06T01:08:48.628Z,13.6294
2024-04-06T01:09:50.067Z,13.6949
2024-04-06T01:10:51.506Z,13.7546
2024-04-06T01:11:52.946Z,13.7488
2024-04-06T01:12:54.376Z,13.9261
2024-04-06T01:13:55.816Z,13.8281
2024-04-06T01:14:57.259Z,13.8123
2024-04-06T01:15:58.766Z,13.9346
2024-04-06T01:17:00.157Z,13.9183
2024-04-06T01:18:01.587Z,13.7413
2024-04-06T01:19:03.031Z,13.8167
2024-04-06T01:20:04.462Z,14.0674
2024-04-06T01:21:05.898Z,14.1673
2024-04-06T01:22:07.348Z,14.3336
2024-04-06T01:23:08.644Z,14.3214
2024-04-06T01:24:10.057Z,14.2626
2024-04-06T01:25:11.377Z,14.0815
2024-04-06T01:26:12.846Z,13.7524
2024-04-06T01:27:14.198Z,13.8778
2024-04-06T01:28:15.647Z,13.7274
2024-04-06T01:29:17.070Z,13.8855
2024-04-06T01:30:18.511Z,14.1929
2024-04-06T01:31:19.943Z,14.1836
2024-04-06T01:32:21.477Z,14.3096
2024-04-06T01:33:22.827Z,14.5263
2024-04-06T01:34:24.282Z,14.6756
2024-04-06T01:35:25.862Z,14.6895
2024-04-06T01:36:27.226Z,14.7502
2024-04-06T01:37:28.595Z,14.7128
2024-04-06T01:38:30.107Z,14.8122
2024-04-06T01:39:31.495Z,14.7533
2024-04-06T01:40:33.048Z,14.6523
2024-04-06T01:41:34.378Z,14.6159
2024-04-06T01:42:35.827Z,14.6820
2024-04-06T01:43:37.263Z,14.7566
2024-04-06T01:44:38.711Z,15.1520
2024-04-06T01:45:40.137Z,15.0474
2024-04-06T01:46:41.577Z,15.1594
2024-04-06T01:47:43.026Z,15.1950
2024-04-06T01:48:44.375Z,15.1251
2024-04-06T01:49:45.687Z,14.6531
2024-04-06T01:50:47.009Z,14.5125
2024-04-06T01:51:48.459Z,14.2851
2024-04-06T01:52:49.907Z,14.1855
2024-04-06T01:53:51.315Z,13.9894
2024-04-06T01:54:52.602Z,13.9021
2024-04-06T01:55:53.947Z,14.0217
2024-04-06T01:56:55.345Z,14.0391
2024-04-06T01:57:56.774Z,13.8484
2024-04-06T01:58:58.229Z,14.3154
2024-04-06T01:59:59.672Z,14.4822
2024-04-06T02:01:01.118Z,14.5622
2024-04-06T02:02:02.545Z,14.7876
2024-04-06T02:03:03.848Z,14.5892
2024-04-06T02:04:05.190Z,14.6628
2024-04-06T02:05:06.539Z,14.7877
2024-04-06T02:06:07.949Z,14.8619
2024-04-06T02:07:09.430Z,14.7577
2024-04-06T02:08:10.862Z,14.5592
2024-04-06T02:09:12.316Z,14.7326
2024-04-06T02:10:13.752Z,14.8548
2024-04-06T02:11:15.167Z,14.6740
2024-04-06T02:12:16.639Z,14.9148
2024-04-06T02:13:18.073Z,15.0084
2024-04-06T02:14:19.607Z,14.9461
2024-04-06T02:15:20.924Z,14.8538
2024-04-06T02:16:22.387Z,14.7857
2024-04-06T02:17:23.861Z,14.7235
2024-04-06T02:18:25.267Z,14.8579
2024-04-06T02:19:26.783Z,15.0251
2024-04-06T02:20:28.232Z,14.7954
2024-04-06T02:21:29.594Z,14.7907
2024-04-06T02:22:31.353Z,14.6237
2024-04-06T02:23:32.794Z,14.6825
2024-04-06T02:24:34.261Z,14.9253
2024-04-06T02:25:35.662Z,14.4930
2024-04-06T02:26:37.089Z,14.3317
2024-04-06T02:27:38.552Z,14.3075
2024-04-06T02:28:39.981Z,14.3966
2024-04-06T02:29:41.430Z,14.6041
2024-04-06T02:30:42.709Z,14.5166
2024-04-06T02:31:44.070Z,14.7326
2024-04-06T02:32:45.429Z,14.9343
2024-04-06T02:33:46.856Z,14.9800
2024-04-06T02:34:48.337Z,14.8556
2024-04-06T02:35:49.745Z,14.9731
2024-04-06T02:36:51.037Z,15.0964
2024-04-06T02:37:52.355Z,15.1154
2024-04-06T02:38:53.682Z,14.6880
2024-04-06T02:39:54.955Z,14.3316
2024-04-06T02:40:56.251Z,13.9073
2024-04-06T02:41:57.774Z,13.3110
2024-04-06T02:42:59.261Z,12.8549
2024-04-06T02:44:00.620Z,12.6923
2024-04-06T02:45:02.155Z,12.3990
2024-04-06T02:46:03.501Z,12.3496
2024-04-06T02:47:04.943Z,12.1554
2024-04-06T02:48:06.386Z,11.9825
2024-04-06T02:49:07.816Z,11.9466
2024-04-06T02:50:09.248Z,11.8292
2024-04-06T02:51:10.704Z,11.6909
2024-04-06T02:52:12.143Z,11.5632
2024-04-06T02:53:13.567Z,11.5174
2024-04-06T02:54:15.026Z,11.4118
2024-04-06T02:55:16.466Z,11.4173
2024-04-06T02:56:17.911Z,11.4650
2024-04-06T02:57:19.346Z,11.3479
2024-04-06T02:58:20.755Z,11.1694
2024-04-06T02:59:22.212Z,10.9663
2024-04-06T03:00:23.666Z,10.8537
2024-04-06T03:01:25.097Z,10.6977
2024-04-06T03:02:26.575Z,10.5849
2024-04-06T03:03:27.995Z,10.5483
2024-04-06T03:04:29.415Z,10.6919
2024-04-06T03:05:30.724Z,11.0546
2024-04-06T03:06:32.007Z,11.6837
2024-04-06T03:07:33.526Z,11.7508
2024-04-06T03:08:34.867Z,11.7728
2024-04-06T03:09:36.316Z,12.0349
2024-04-06T03:10:37.732Z,12.0827
2024-04-06T03:11:39.186Z,12.4991
2024-04-06T03:12:40.599Z,12.5508
2024-04-06T03:13:42.068Z,12.8616
2024-04-06T03:14:43.377Z,12.8316
2024-04-06T03:15:44.952Z,12.7749
2024-04-06T03:16:46.385Z,12.8420
2024-04-06T03:17:47.815Z,12.8830
2024-04-06T03:18:49.259Z,12.8998
2024-04-06T03:19:50.715Z,12.7570
2024-04-06T03:20:52.019Z,12.7886
2024-04-06T03:21:53.308Z,12.6397
2024-04-06T03:22:54.712Z,12.6617
2024-04-06T03:23:56.234Z,12.5726
2024-04-06T03:24:57.696Z,12.3786
2024-04-06T03:25:59.028Z,12.3472
2024-04-06T03:27:00.450Z,12.1824
2024-04-06T03:28:01.944Z,12.1022
2024-04-06T03:29:03.335Z,12.3634
2024-04-06T03:30:04.798Z,12.2033
2024-04-06T03:31:06.212Z,12.1736
2024-04-06T03:32:07.746Z,12.0998
2024-04-06T03:33:09.106Z,12.0838
2024-04-06T03:34:10.545Z,11.9919
2024-04-06T03:35:11.988Z,11.7219
2024-04-06T03:36:13.427Z,11.5316
2024-04-06T03:37:14.869Z,11.3915
2024-04-06T03:38:16.301Z,11.4740
2024-04-06T03:39:17.731Z,11.6383
2024-04-06T03:40:19.014Z,11.7404
2024-04-06T03:41:20.344Z,11.6491
2024-04-06T03:42:21.752Z,11.6069
2024-04-06T03:43:23.042Z,11.6650
2024-04-06T03:44:24.437Z,11.6297
2024-04-06T03:45:25.754Z,11.7759
2024-04-06T03:46:27.064Z,11.8367
2024-04-06T03:47:28.379Z,11.9295
2024-04-06T03:48:29.734Z,12.0213
2024-04-06T03:49:31.170Z,12.0693
2024-04-06T03:50:32.674Z,12.1155
2024-04-06T03:51:34.027Z,12.2123
2024-04-06T03:52:35.339Z,12.0084
2024-04-06T03:53:36.620Z,11.9078
2024-04-06T03:54:38.055Z,11.8271
2024-04-06T03:55:39.492Z,11.6595
2024-04-06T03:56:40.946Z,11.8337
2024-04-06T03:57:42.375Z,12.0805
2024-04-06T03:58:43.826Z,12.0081
2024-04-06T03:59:45.266Z,12.0621
2024-04-06T04:00:46.704Z,12.0563
2024-04-06T04:01:48.144Z,12.0678
2024-04-06T04:02:49.574Z,11.9226
2024-04-06T04:03:51.015Z,11.9411
2024-04-06T04:04:52.455Z,11.8390
2024-04-06T04:05:53.910Z,11.9713
2024-04-06T04:06:55.354Z,12.0118
2024-04-06T04:07:56.784Z,11.9586
2024-04-06T04:08:58.234Z,11.9627
2024-04-06T04:09:59.655Z,11.9876
2024-04-06T04:11:01.112Z,11.9503
2024-04-06T04:12:02.530Z,11.9876
2024-04-06T04:13:03.978Z,12.0200
2024-04-06T04:14:05.409Z,11.9735
2024-04-06T04:15:06.853Z,12.0640
2024-04-06T04:16:08.286Z,11.9479
2024-04-06T04:17:09.735Z,11.9422
2024-04-06T04:18:11.174Z,11.8914
2024-04-06T04:19:12.609Z,11.7550
2024-04-06T04:20:13.905Z,11.7310
2024-04-06T04:21:15.198Z,11.6991
2024-04-06T04:22:16.504Z,11.7803
2024-04-06T04:23:17.849Z,11.7698
2024-04-06T04:24:19.164Z,11.8178
2024-04-06T04:25:20.616Z,11.9485
2024-04-06T04:26:22.055Z,11.8925
2024-04-06T04:27:23.498Z,11.9313
2024-04-06T04:28:24.936Z,11.9162
2024-04-06T04:29:26.395Z,12.0067
2024-04-06T04:30:27.826Z,12.0998
2024-04-06T04:31:29.286Z,12.0814
2024-04-06T04:32:30.754Z,11.8986
2024-04-06T04:33:32.140Z,11.7626
2024-04-06T04:34:33.580Z,11.7596
2024-04-06T04:35:35.051Z,11.8321
2024-04-06T04:36:36.386Z,11.6938
2024-04-06T04:37:37.688Z,11.7731
2024-04-06T04:38:39.056Z,11.9919
2024-04-06T04:39:40.462Z,11.9053
2024-04-06T04:40:41.742Z,11.9199
2024-04-06T04:41:43.067Z,11.8771
2024-04-06T04:42:44.462Z,11.8372
2024-04-06T04:43:45.906Z,11.9072
2024-04-06T04:44:53.483Z,12.1369
2024-04-06T04:45:47.529Z,12.0331
2024-04-06T04:46:49.075Z,11.9286
2024-04-06T04:47:50.470Z,11.7307
2024-04-06T04:48:51.774Z,11.5824
2024-04-06T04:49:53.297Z,11.5480
2024-04-06T04:50:54.599Z,11.4341
2024-04-06T04:51:55.949Z,11.3474
2024-04-06T04:52:57.238Z,11.2500
2024-04-06T04:53:58.707Z,10.9871
2024-04-06T04:55:00.171Z,10.6806
2024-04-06T04:56:01.607Z,10.5724
2024-04-06T04:57:02.908Z,10.4329
2024-04-06T04:58:04.297Z,10.3806
2024-04-06T04:59:05.630Z,10.3617
2024-04-06T05:00:07.011Z,10.4186
2024-04-06T05:01:08.539Z,10.3237
2024-04-06T05:02:09.906Z,10.4164
2024-04-06T05:03:11.337Z,10.4561
2024-04-06T05:04:12.607Z,10.4363
2024-04-06T05:05:13.896Z,10.4126
2024-04-06T05:06:15.203Z,10.5928
2024-04-06T05:07:16.458Z,10.5739
2024-04-06T05:08:17.759Z,10.9677
2024-04-06T05:09:19.010Z,11.4768
2024-04-06T05:10:20.259Z,11.4251
2024-04-06T05:11:21.614Z,11.4517
2024-04-06T05:12:23.023Z,11.7538
2024-04-06T05:13:24.471Z,11.6823
2024-04-06T05:14:25.918Z,11.7124
2024-04-06T05:15:27.349Z,11.9402
2024-04-06T05:16:28.833Z,12.0348
2024-04-06T05:17:30.244Z,12.0191
2024-04-06T05:18:31.677Z,12.1055
2024-04-06T05:19:32.982Z,11.9669
2024-04-06T05:20:34.324Z,11.7819
2024-04-06T05:21:35.682Z,11.7445
2024-04-06T05:22:37.112Z,11.7321
2024-04-06T05:23:38.627Z,11.7638
2024-04-06T05:24:39.965Z,12.0024
2024-04-06T05:25:41.234Z,11.8450
2024-04-06T05:26:42.589Z,11.8783
2024-04-06T05:27:43.962Z,12.0330
2024-04-06T05:28:45.231Z,12.0769
2024-04-06T05:29:46.543Z,12.0208
2024-04-06T05:30:47.986Z,12.0169
2024-04-06T05:31:49.418Z,12.0489
2024-04-06T05:32:50.698Z,12.0728
2024-04-06T05:33:51.994Z,12.1248
2024-04-06T05:34:53.432Z,12.2352
2024-04-06T05:35:54.858Z,12.2649
2024-04-06T05:36:56.314Z,12.2518
2024-04-06T05:37:57.738Z,12.2358
2024-04-06T05:38:59.006Z,12.3544
2024-04-06T05:40:00.298Z,12.4553
2024-04-06T05:41:01.737Z,12.5745
2024-04-06T05:42:03.191Z,12.5150
2024-04-06T05:43:04.624Z,12.4771
2024-04-06T05:44:07.597Z,12.6050
2024-04-06T05:45:09.007Z,12.6384
2024-04-06T05:46:10.259Z,12.7677
2024-04-06T05:47:11.669Z,12.8767
2024-04-06T05:48:13.099Z,12.9380
2024-04-06T05:49:14.607Z,12.9249
2024-04-06T05:50:15.988Z,13.0072
2024-04-06T05:51:17.418Z,13.1010
2024-04-06T05:52:18.707Z,13.1949
2024-04-06T05:53:20.066Z,13.2942
2024-04-06T05:54:21.420Z,13.3445
2024-04-06T05:55:22.666Z,13.4719
2024-04-06T05:56:23.987Z,13.4659
2024-04-06T05:57:25.431Z,13.4555
2024-04-06T05:58:26.861Z,13.4780
2024-04-06T05:59:28.321Z,13.4472
2024-04-06T06:00:29.740Z,13.5111
2024-04-06T06:01:31.199Z,13.4978
2024-04-06T06:02:32.728Z,13.5666
2024-04-06T06:03:33.979Z,13.6264
2024-04-06T06:04:35.499Z,13.5360
2024-04-06T06:05:36.789Z,13.5435
2024-04-06T06:06:38.051Z,13.6459
2024-04-06T06:07:39.512Z,13.6761
2024-04-06T06:08:40.953Z,13.5201
2024-04-06T06:09:42.377Z,13.6514
2024-04-06T06:10:43.884Z,13.6275
2024-04-06T06:11:45.271Z,13.7161
2024-04-06T06:12:46.717Z,13.7835
2024-04-06T06:13:48.147Z,13.8998
2024-04-06T06:14:49.576Z,13.9571
2024-04-06T06:15:51.026Z,13.9620
2024-04-06T06:16:52.507Z,14.1349
2024-04-06T06:17:53.923Z,14.2576
2024-04-06T06:18:55.326Z,14.0861
2024-04-06T06:19:56.595Z,14.0785
2024-04-06T06:20:58.007Z,14.0367
2024-04-06T06:21:59.346Z,14.0724
2024-04-06T06:23:00.792Z,14.0509
2024-04-06T06:24:02.254Z,14.1222
2024-04-06T06:25:03.676Z,14.0294
2024-04-06T06:26:05.107Z,14.1121
2024-04-06T06:27:06.568Z,14.1602
2024-04-06T06:28:07.985Z,14.3050
2024-04-06T06:29:09.448Z,14.3663
2024-04-06T06:30:10.868Z,14.4627
2024-04-06T06:31:12.303Z,14.5650
2024-04-06T06:32:13.753Z,14.5315
2024-04-06T06:33:15.195Z,14.5813
2024-04-06T06:34:16.654Z,14.9402
2024-04-06T06:35:18.069Z,15.0625
2024-04-06T06:38:20.511Z,15.0856
2024-04-06T06:41:23.573Z,15.4329
2024-04-06T06:42:24.934Z,15.0482
2024-04-06T06:43:26.384Z,15.0100
2024-04-06T06:44:27.838Z,14.9866
2024-04-06T06:45:29.269Z,14.9841
2024-04-06T06:46:30.693Z,14.9564
2024-04-06T06:47:32.179Z,14.9156
2024-04-06T06:48:33.570Z,14.9406
2024-04-06T06:49:35.017Z,15.0590
2024-04-06T06:50:36.455Z,15.0051
2024-04-06T06:51:37.896Z,15.0359
2024-04-06T06:52:39.352Z,14.9099
2024-04-06T06:53:40.622Z,14.8513
2024-04-06T06:54:42.828Z,14.7993
2024-04-06T06:55:44.237Z,14.8527
2024-04-06T06:56:45.682Z,14.7073
2024-04-06T06:57:47.131Z,14.6379
2024-04-06T06:58:48.366Z,14.5818
2024-04-06T07:00:50.346Z,14.6793
2024-04-06T07:01:51.650Z,14.7453
2024-04-06T07:02:52.909Z,14.5300
2024-04-06T07:03:54.208Z,14.4780
2024-04-06T07:04:55.458Z,14.5887
2024-04-06T07:05:56.897Z,14.7785
2024-04-06T07:07:58.937Z,14.6909
2024-04-06T07:09:02.748Z,14.7461
2024-04-06T07:10:00.786Z,14.6723
2024-04-06T07:11:02.078Z,14.6187
2024-04-06T07:12:03.325Z,14.6454
2024-04-06T07:13:04.652Z,14.6459
2024-04-06T07:14:06.082Z,14.6663
2024-04-06T07:15:07.498Z,14.7833
2024-04-06T07:16:08.775Z,14.7177
2024-04-06T07:17:10.060Z,14.7800
2024-04-06T07:18:11.329Z,14.8405
2024-04-06T07:19:12.927Z,14.8782
2024-04-06T07:20:14.190Z,14.9660
2024-04-06T07:21:15.505Z,15.1075
2024-04-06T07:22:16.956Z,15.2668
2024-04-06T07:23:18.286Z,15.3697
2024-04-06T07:24:19.553Z,15.2454
2024-04-06T07:25:20.814Z,15.2591
2024-04-06T07:26:22.078Z,15.3722
2024-04-06T07:27:23.503Z,15.2750
2024-04-06T07:28:24.942Z,15.3000
2024-04-06T07:29:26.386Z,15.4859
2024-04-06T07:30:27.833Z,15.5384
2024-04-06T07:31:29.279Z,15.6884
2024-04-06T07:32:30.770Z,15.6147
2024-04-06T07:33:32.124Z,15.7248
2024-04-06T07:34:33.595Z,15.6677
2024-04-06T07:35:35.020Z,15.6647
2024-04-06T07:36:36.471Z,15.8072
2024-04-06T07:37:37.898Z,15.9091
2024-04-06T07:39:20.084Z,16.0070
2024-04-06T07:39:39.298Z,16.0478
2024-04-06T07:40:40.625Z,15.9902
2024-04-06T07:41:42.055Z,16.0085
2024-04-06T07:42:43.498Z,16.0855
2024-04-06T07:43:44.944Z,16.1331
2024-04-06T07:44:46.380Z,16.2845
2024-04-06T07:45:47.671Z,16.3528
2024-04-06T07:46:49.525Z,16.2829
2024-04-06T07:47:50.968Z,16.4238
2024-04-06T07:48:52.381Z,16.4738
2024-04-06T07:49:53.835Z,16.4270
2024-04-06T07:50:55.286Z,16.3192
2024-04-06T07:51:56.728Z,16.6028
2024-04-06T07:52:58.151Z,16.4878
2024-04-06T07:53:59.442Z,16.6642
2024-04-06T07:55:00.727Z,16.3577
2024-04-06T07:56:02.018Z,16.4901
2024-04-06T07:57:03.425Z,16.2795
2024-04-06T07:58:04.713Z,16.1109
2024-04-06T07:59:06.014Z,16.0923
2024-04-06T08:00:07.454Z,16.1493
2024-04-06T08:01:08.797Z,16.0398
2024-04-06T08:02:10.208Z,16.2946
2024-04-06T08:03:11.657Z,16.4330
2024-04-06T08:04:12.981Z,16.6736
2024-04-06T08:05:14.305Z,16.6282
2024-04-06T08:06:15.697Z,16.4130
2024-04-06T08:07:17.131Z,16.0866
2024-04-06T08:08:18.456Z,15.8815
2024-04-06T08:09:19.745Z,15.9803
2024-04-06T08:10:21.226Z,16.1007
2024-04-06T08:11:22.537Z,16.1699
2024-04-06T08:12:23.997Z,16.2124
2024-04-06T08:13:25.431Z,16.1083
2024-04-06T08:14:26.846Z,16.1834
2024-04-06T08:15:30.830Z,16.3843
2024-04-06T08:16:29.738Z,16.3755
2024-04-06T08:17:31.197Z,16.3808
2024-04-06T08:18:32.620Z,16.3872
2024-04-06T08:19:34.066Z,16.4914
2024-04-06T08:20:35.494Z,16.8758
2024-04-06T08:21:36.788Z,16.9788
2024-04-06T08:22:38.053Z,17.0316
2024-04-06T08:23:39.502Z,17.4065
2024-04-06T08:24:40.996Z,17.5732
2024-04-06T08:25:42.411Z,17.4002
2024-04-06T08:26:43.813Z,17.3374
2024-04-06T08:27:45.097Z,17.1484
2024-04-06T08:28:46.526Z,17.1769
2024-04-06T08:29:47.818Z,17.0801
2024-04-06T08:30:49.121Z,17.3294
2024-04-06T08:31:50.462Z,17.3435
2024-04-06T08:32:51.730Z,17.3740
2024-04-06T08:33:53.036Z,17.4953
2024-04-06T08:34:54.393Z,17.2014
2024-04-06T08:35:55.822Z,17.0884
2024-04-06T08:36:57.270Z,17.2999
2024-04-06T08:37:58.723Z,17.7578
2024-04-06T08:39:00.148Z,17.9057
2024-04-06T08:40:01.604Z,17.3998
2024-04-06T08:41:03.017Z,17.2856
2024-04-06T08:42:04.459Z,17.4970
2024-04-06T08:43:05.911Z,17.7318
2024-04-06T08:44:07.348Z,17.6919
2024-04-06T08:45:08.765Z,17.6200
2024-04-06T08:46:10.252Z,17.7595
2024-04-06T08:47:11.656Z,17.7048
2024-04-06T08:48:13.102Z,18.0992
2024-04-06T08:49:14.580Z,17.9954
2024-04-06T08:50:15.986Z,18.0969
2024-04-06T08:51:17.422Z,18.3499
2024-04-06T08:52:18.857Z,18.5223
2024-04-06T08:53:20.343Z,18.4404
2024-04-06T08:54:21.767Z,18.5398
2024-04-06T08:55:23.177Z,18.9836
2024-04-06T08:56:24.627Z,18.9754
2024-04-06T08:57:26.056Z,18.8304
2024-04-06T08:58:27.356Z,18.6299
2024-04-06T08:59:28.636Z,18.8446
2024-04-06T09:00:30.098Z,19.0709
2024-04-06T09:01:31.488Z,19.0554
2024-04-06T09:02:32.935Z,19.6661
2024-04-06T09:03:34.389Z,19.2740
2024-04-06T09:04:35.839Z,19.2410
2024-04-06T09:05:37.247Z,18.7602
2024-04-06T09:06:38.694Z,18.9253
2024-04-06T09:07:40.133Z,18.9258
2024-04-06T09:08:41.580Z,19.2748
2024-04-06T09:09:43.012Z,19.8205
2024-04-06T09:10:44.464Z,20.2245
2024-04-06T09:11:45.894Z,20.6975
2024-04-06T09:12:47.379Z,20.3412
2024-04-06T09:13:48.907Z,21.0152
2024-04-06T09:14:50.245Z,20.7579
2024-04-06T09:15:51.662Z,20.9793
2024-04-06T09:16:53.170Z,20.7587
2024-04-06T09:17:54.541Z,21.1118
2024-04-06T09:18:55.979Z,20.6205
2024-04-06T09:19:57.425Z,21.0943
2024-04-06T09:20:58.863Z,21.1747
2024-04-06T09:22:00.300Z,21.5433
2024-04-06T09:23:01.577Z,21.7116
2024-04-06T09:24:02.844Z,21.4888
2024-04-06T09:25:04.338Z,21.6337
2024-04-06T09:26:05.603Z,21.1013
2024-04-06T09:27:06.895Z,20.8437
2024-04-06T09:28:08.318Z,20.5049
2024-04-06T09:29:09.753Z,21.1744
2024-04-06T09:30:11.125Z,21.3498
2024-04-06T09:31:12.459Z,21.5333
2024-04-06T09:32:13.744Z,22.5156
2024-04-06T09:33:15.180Z,23.0450
2024-04-06T09:34:16.649Z,21.9953
2024-04-06T09:35:18.120Z,22.4723
2024-04-06T09:36:19.587Z,22.3947
2024-04-06T09:37:20.944Z,22.2573
2024-04-06T09:38:25.663Z,22.0380
2024-04-06T09:39:23.826Z,21.0559
2024-04-06T09:40:25.254Z,21.3958
2024-04-06T09:41:26.698Z,21.5366
2024-04-06T09:42:27.977Z,21.5539
2024-04-06T09:43:29.276Z,21.9238
2024-04-06T09:44:30.708Z,21.7645
2024-04-06T09:45:32.145Z,21.2893
2024-04-06T09:46:33.596Z,21.9940
2024-04-06T09:47:35.014Z,22.1853
2024-04-06T09:48:36.455Z,22.3506
2024-04-06T09:49:37.815Z,21.9643
2024-04-06T09:50:39.105Z,21.8586
2024-04-06T09:51:40.465Z,21.2249
2024-04-06T09:52:41.898Z,21.3058
2024-04-06T09:53:43.343Z,21.1706
2024-04-06T09:54:44.776Z,21.6090
2024-04-06T09:55:46.225Z,21.8655
2024-04-06T09:56:47.679Z,21.3208
2024-04-06T09:57:48.941Z,21.1953
2024-04-06T09:58:50.249Z,21.6068
2024-04-06T09:59:52.397Z,20.9494
2024-04-06T10:00:54.667Z,21.3368
2024-04-06T10:01:56.106Z,21.2469
2024-04-06T10:02:57.548Z,21.0732
2024-04-06T10:03:58.978Z,20.5319
2024-04-06T10:05:00.347Z,20.7603
2024-04-06T10:06:01.621Z,20.6203
2024-04-06T10:07:02.908Z,21.0540
2024-04-06T10:08:04.252Z,20.4848
2024-04-06T10:09:05.560Z,20.1392
2024-04-06T10:10:07.016Z,20.3354
2024-04-06T10:11:08.464Z,20.8985
2024-04-06T10:12:09.904Z,20.9285
2024-04-06T10:13:11.350Z,20.3810
2024-04-06T10:14:13.795Z,20.8362
2024-04-06T10:15:16.079Z,21.4227
2024-04-06T10:16:17.456Z,21.7972
2024-04-06T10:17:18.744Z,21.7904
2024-04-06T10:18:20.138Z,21.4229
2024-04-06T10:19:21.599Z,20.9197
2024-04-06T10:20:22.855Z,21.3726
2024-04-06T10:21:24.141Z,21.4315
2024-04-06T10:22:25.600Z,21.4094
2024-04-06T10:23:27.028Z,21.6242
2024-04-06T10:24:28.458Z,21.5136
2024-04-06T10:25:29.898Z,21.4709
2024-04-06T10:26:31.341Z,21.5240
2024-04-06T10:27:32.772Z,21.6797
2024-04-06T10:28:34.234Z,21.3365
2024-04-06T10:29:35.656Z,21.2540
2024-04-06T10:30:37.120Z,20.9232
2024-04-06T10:31:46.058Z,20.6816
2024-04-06T10:32:38.668Z,20.6312
2024-04-06T10:33:40.116Z,20.7572
2024-04-06T10:34:49.690Z,20.5475
2024-04-06T10:35:41.597Z,21.5140
2024-04-06T10:36:42.919Z,21.7466
2024-04-06T10:37:44.246Z,22.0229
2024-04-06T10:38:45.627Z,22.2654
2024-04-06T10:39:46.881Z,22.3460
2024-04-06T10:40:48.308Z,21.9893
2024-04-06T10:41:49.855Z,22.2697
2024-04-06T10:42:51.176Z,21.9667
2024-04-06T10:43:52.622Z,21.7163
2024-04-06T10:44:54.056Z,22.1376
2024-04-06T10:45:55.528Z,22.7271
2024-04-06T10:46:56.990Z,22.4902
2024-04-06T10:47:58.404Z,22.8882
2024-04-06T10:48:59.767Z,23.1589
2024-04-06T10:50:01.125Z,22.8601
2024-04-06T10:51:02.447Z,22.9343
2024-04-06T10:52:03.819Z,23.6633
2024-04-06T10:53:05.242Z,23.4553
2024-04-06T10:54:06.691Z,22.8644
2024-04-06T10:55:08.131Z,23.2426
2024-04-06T10:56:09.658Z,23.9677
2024-04-06T10:57:11.101Z,23.4300
2024-04-06T10:58:12.481Z,24.1392
2024-04-06T10:59:13.814Z,23.9704
2024-04-06T11:00:15.104Z,24.6393
2024-04-06T11:01:16.483Z,24.5611
2024-04-06T11:02:17.904Z,24.2033
2024-04-06T11:03:19.348Z,23.2588
2024-04-06T11:04:20.898Z,23.2845
2024-04-06T11:05:22.266Z,22.7740
2024-04-06T11:06:23.669Z,23.3860
2024-04-06T11:07:25.099Z,23.1124
2024-04-06T11:08:26.365Z,22.8128
2024-04-06T11:09:27.645Z,22.8598
2024-04-06T11:10:28.934Z,23.4894
2024-04-06T11:11:30.209Z,23.4873
2024-04-06T11:12:31.657Z,23.5948
2024-04-06T11:13:33.102Z,24.2130
2024-04-06T11:14:34.537Z,23.2709
2024-04-06T11:15:35.987Z,23.3328
2024-04-06T11:16:37.539Z,22.9974
2024-04-06T11:17:38.931Z,22.8623
2024-04-06T11:18:42.159Z,22.7286
2024-04-06T11:19:43.628Z,23.0606
2024-04-06T11:20:45.087Z,23.4715
2024-04-06T11:21:46.434Z,23.9328
2024-04-06T11:22:47.768Z,23.3873
2024-04-06T11:23:49.405Z,23.3166
2024-04-06T11:24:50.847Z,23.5038
2024-04-06T11:25:52.274Z,24.4389
2024-04-06T11:26:53.717Z,23.7190
2024-04-06T11:27:55.204Z,23.6689
2024-04-06T11:28:56.608Z,24.0115
2024-04-06T11:29:58.880Z,24.0494
2024-04-06T11:31:01.430Z,23.8456
2024-04-06T11:32:02.699Z,23.6154
2024-04-06T11:33:04.001Z,23.4514
2024-04-06T11:34:05.418Z,23.2459
2024-04-06T11:35:06.872Z,23.2679
2024-04-06T11:36:08.308Z,22.8721
2024-04-06T11:37:09.815Z,22.7803
2024-04-06T11:38:11.175Z,22.9767
2024-04-06T11:39:12.612Z,23.2057
2024-04-06T11:40:14.062Z,23.0079
2024-04-06T11:41:15.498Z,23.1462
2024-04-06T11:42:16.956Z,22.9500
2024-04-06T11:43:18.546Z,23.2673
2024-04-06T11:44:19.805Z,23.1638
2024-04-06T11:45:21.284Z,23.1903
2024-04-06T11:46:22.754Z,23.3365
2024-04-06T11:47:24.147Z,23.4358
2024-04-06T11:48:26.982Z,23.3194
2024-04-06T11:49:26.108Z,23.4157
2024-04-06T11:50:27.421Z,23.8961
2024-04-06T11:51:28.762Z,24.0115
2024-04-06T11:52:30.037Z,24.2309
2024-04-06T11:53:31.518Z,23.9543
2024-04-06T11:54:32.945Z,23.9122
2024-04-06T11:55:34.387Z,24.2726
2024-04-06T11:56:35.806Z,24.4022
2024-04-06T11:57:37.266Z,24.6890
2024-04-06T11:58:38.533Z,24.7388
2024-04-06T11:59:39.854Z,24.5085
2024-04-06T12:00:41.279Z,23.9349
2024-04-06T12:01:42.711Z,24.2543
2024-04-06T12:02:44.144Z,25.0710
2024-04-06T12:03:45.630Z,24.7352
2024-04-06T12:04:47.022Z,24.6404
2024-04-06T12:05:48.467Z,24.8126
2024-04-06T12:06:49.934Z,24.9735
2024-04-06T12:07:51.344Z,25.0064
2024-04-06T12:08:52.762Z,24.6546
2024-04-06T12:09:54.225Z,25.0614
2024-04-06T12:10:55.656Z,24.6555
2024-04-06T12:11:59.143Z,24.7397
2024-04-06T12:13:00.528Z,25.0019
2024-04-06T12:14:01.898Z,24.9265
2024-04-06T12:15:03.188Z,25.1566
2024-04-06T12:16:04.509Z,25.7551
2024-04-06T12:17:05.824Z,25.7387
2024-04-06T12:18:07.141Z,25.8953
2024-04-06T12:19:08.457Z,25.5656
2024-04-06T12:20:09.922Z,25.4370
2024-04-06T12:21:11.331Z,25.2144
2024-04-06T12:22:12.777Z,24.6902
2024-04-06T12:23:14.221Z,24.9791
2024-04-06T12:24:15.686Z,25.6156
2024-04-06T12:25:17.160Z,25.6962
2024-04-06T12:26:18.537Z,25.1982
2024-04-06T12:27:19.864Z,25.0620
2024-04-06T12:28:21.157Z,24.7660